Time;durP1;ratioP1;P1;durP2;ratioP2;P2;SDS_P1;SDS_P2;PMS_P1;PMS_P2;Temp;Humidity;BMP_temperature;BMP_pressure;BME280_temperature;BME280_humidity;BME280_pressure;Samples;Min_cycle;Max_cycle;Signal;HPM_P1;HPM_P2
2023/06/29 00:02:25;;;;;;;3.75;2.08;;;;;;;;;;5033329;28;20453;-83
2023/06/29 00:04:54;;;;;;;3.90;2.08;;;;;;;;;;5033357;28;20378;-83
2023/06/29 00:07:21;;;;;;;2.50;2.20;;;;;;;;;;5033425;28;20740;-83
2023/06/29 00:09:47;;;;;;;2.85;2.17;;;;;;;;;;5039054;28;20788;-83
2023/06/29 00:12:13;;;;;;;4.72;2.50;;;;;;;;;;5047241;28;20748;-82
2023/06/29 00:14:39;;;;;;;2.45;2.00;;;;;;;;;;5033286;28;20730;-83
2023/06/29 00:17:05;;;;;;;2.97;2.03;;;;;;;;;;5042660;28;20407;-82
2023/06/29 00:19:31;;;;;;;2.35;2.15;;;;;;;;;;5033244;28;20867;-82
2023/06/29 00:21:58;;;;;;;2.55;2.03;;;;;;;;;;5032968;28;20383;-82
2023/06/29 00:24:24;;;;;;;2.47;2.15;;;;;;;;;;5039309;28;20383;-82
2023/06/29 00:26:50;;;;;;;3.35;2.40;;;;;;;;;;5059877;28;20480;-82
2023/06/29 00:29:17;;;;;;;3.30;2.25;;;;;;;;;;5048314;28;20800;-82
2023/06/29 00:31:43;;;;;;;2.17;1.98;;;;;;;;;;5032888;28;20379;-82
2023/06/29 00:34:09;;;;;;;3.50;2.23;;;;;;;;;;5032783;28;20381;-82
2023/06/29 00:36:36;;;;;;;2.58;2.17;;;;;;;;;;5032780;28;20865;-82
2023/06/29 00:39:02;;;;;;;2.25;2.05;;;;;;;;;;5032625;28;20407;-82
2023/06/29 00:41:28;;;;;;;2.85;2.10;;;;;;;;;;5042177;28;20379;-82
2023/06/29 00:43:54;;;;;;;3.60;2.00;;;;;;;;;;5032714;28;20375;-82
2023/06/29 00:46:21;;;;;;;2.45;2.20;;;;;;;;;;5032577;28;20437;-82
2023/06/29 00:48:47;;;;;;;2.90;2.10;;;;;;;;;;5032685;28;20391;-82
2023/06/29 00:51:13;;;;;;;2.47;2.20;;;;;;;;;;5032453;28;20375;-82
2023/06/29 00:53:39;;;;;;;2.65;2.17;;;;;;;;;;5032451;28;20395;-82
2023/06/29 00:56:05;;;;;;;2.40;2.20;;;;;;;;;;5032332;28;20383;-82
2023/06/29 00:58:31;;;;;;;3.77;2.13;;;;;;;;;;5032408;28;20375;-82
2023/06/29 01:00:57;;;;;;;2.40;2.00;;;;;;;;;;5032182;28;20415;-82
2023/06/29 01:03:24;;;;;;;3.05;1.95;;;;;;;;;;5032423;28;20398;-82
2023/06/29 01:05:53;;;;;;;2.40;2.10;;;;;;;;;;5032447;28;20387;-82
2023/06/29 01:08:26;;;;;;;2.63;2.30;;;;;;;;;;5032927;28;20379;-82
2023/06/29 01:10:52;;;;;;;2.73;2.23;;;;;;;;;;5044695;28;20548;-82
2023/06/29 01:13:18;;;;;;;3.22;2.20;;;;;;;;;;5031269;28;20872;-81
2023/06/29 01:15:46;;;;;;;2.20;1.90;;;;;;;;;;5046100;28;20441;-81
2023/06/29 01:18:12;;;;;;;3.38;2.10;;;;;;;;;;5032369;28;20387;-82
2023/06/29 01:20:38;;;;;;;2.17;1.80;;;;;;;;;;5031868;28;20403;-82
2023/06/29 01:23:25;;;;;;;2.80;1.98;;;;;;;;;;5032373;28;20383;-82
2023/06/29 01:25:52;;;;;;;2.60;2.40;;;;;;;;;;5030646;28;20399;-82
2023/06/29 01:28:18;;;;;;;3.47;2.10;;;;;;;;;;5033419;28;20926;-81
2023/06/29 01:30:50;;;;;;;3.15;1.90;;;;;;;;;;5035669;28;20432;-82
2023/06/29 01:33:17;;;;;;;2.10;1.90;;;;;;;;;;5044032;28;20389;-82
2023/06/29 01:35:43;;;;;;;2.90;2.15;;;;;;;;;;5047907;28;20394;-82
2023/06/29 01:38:29;;;;;;;3.88;2.35;;;;;;;;;;5034061;28;20394;-80
2023/06/29 01:40:57;;;;;;;2.25;2.05;;;;;;;;;;5024567;28;20417;-82
2023/06/29 01:43:24;;;;;;;2.50;2.30;;;;;;;;;;5046171;28;20449;-81
2023/06/29 01:45:51;;;;;;;2.42;2.22;;;;;;;;;;5040430;28;20382;-80
2023/06/29 01:48:17;;;;;;;2.55;2.13;;;;;;;;;;5041298;28;20391;-82
2023/06/29 01:50:43;;;;;;;2.80;2.20;;;;;;;;;;5043529;28;20405;-81
2023/06/29 01:53:10;;;;;;;2.90;2.10;;;;;;;;;;5035534;28;20384;-82
2023/06/29 01:55:36;;;;;;;2.30;2.10;;;;;;;;;;5035854;28;20390;-82
2023/06/29 01:58:02;;;;;;;2.00;1.80;;;;;;;;;;5040307;28;20387;-82
2023/06/29 02:00:28;;;;;;;1.95;1.83;;;;;;;;;;5041462;28;20416;-82
2023/06/29 02:02:54;;;;;;;2.47;2.00;;;;;;;;;;5048981;28;20383;-82
2023/06/29 02:05:21;;;;;;;2.85;2.25;;;;;;;;;;5040108;28;20514;-82
2023/06/29 02:07:47;;;;;;;1.90;1.70;;;;;;;;;;5035202;28;20383;-82
2023/06/29 02:10:13;;;;;;;2.40;2.10;;;;;;;;;;5053283;28;20442;-82
2023/06/29 02:12:40;;;;;;;2.83;2.15;;;;;;;;;;5035184;28;20462;-82
2023/06/29 02:15:06;;;;;;;2.10;1.90;;;;;;;;;;5036486;28;20398;-82
2023/06/29 02:17:32;;;;;;;2.40;2.20;;;;;;;;;;5037583;28;20853;-82
2023/06/29 02:19:58;;;;;;;3.28;2.10;;;;;;;;;;5034659;28;20410;-82
2023/06/29 02:22:24;;;;;;;2.55;1.90;;;;;;;;;;5035265;28;20457;-82
2023/06/29 02:24:50;;;;;;;3.10;2.30;;;;;;;;;;5035334;28;20494;-82
2023/06/29 02:27:17;;;;;;;2.20;1.95;;;;;;;;;;5035197;28;20383;-82
2023/06/29 02:29:43;;;;;;;2.20;2.00;;;;;;;;;;5059694;28;20377;-82
2023/06/29 02:32:09;;;;;;;3.63;2.40;;;;;;;;;;5039884;28;20939;-82
2023/06/29 02:34:35;;;;;;;2.17;2.00;;;;;;;;;;5035210;28;20460;-82
2023/06/29 02:37:01;;;;;;;3.38;2.15;;;;;;;;;;5035270;28;20394;-82
2023/06/29 02:39:27;;;;;;;2.30;2.00;;;;;;;;;;5033549;28;20776;-82
2023/06/29 02:41:53;;;;;;;2.22;2.00;;;;;;;;;;5034117;28;20463;-82
2023/06/29 02:44:20;;;;;;;2.42;2.00;;;;;;;;;;5034847;28;20375;-82
2023/06/29 02:46:46;;;;;;;3.08;2.17;;;;;;;;;;5035003;28;20462;-82
2023/06/29 02:49:14;;;;;;;3.75;1.95;;;;;;;;;;5049419;28;20460;-82
2023/06/29 02:51:40;;;;;;;2.97;1.80;;;;;;;;;;5034780;28;20380;-82
2023/06/29 02:54:06;;;;;;;2.85;2.30;;;;;;;;;;5035154;28;20501;-81
2023/06/29 02:56:32;;;;;;;3.05;2.17;;;;;;;;;;5034577;28;20467;-82
2023/06/29 02:58:58;;;;;;;2.25;2.00;;;;;;;;;;5034693;28;20899;-82
2023/06/29 03:01:24;;;;;;;2.50;2.13;;;;;;;;;;5033081;28;20419;-82
2023/06/29 03:03:50;;;;;;;2.38;1.98;;;;;;;;;;5034722;28;20425;-82
2023/06/29 03:06:15;;;;;;;2.20;2.00;;;;;;;;;;5034445;28;20721;-81
2023/06/29 03:08:41;;;;;;;2.30;2.08;;;;;;;;;;5038269;28;20381;-82
2023/06/29 03:11:07;;;;;;;2.67;2.10;;;;;;;;;;5044434;28;20852;-82
2023/06/29 03:13:33;;;;;;;3.13;2.28;;;;;;;;;;5034392;28;20387;-82
2023/06/29 03:16:01;;;;;;;3.63;2.03;;;;;;;;;;5034452;28;20429;-81
2023/06/29 03:18:27;;;;;;;2.72;2.15;;;;;;;;;;5033281;28;20385;-81
2023/06/29 03:20:53;;;;;;;2.53;2.20;;;;;;;;;;5034164;28;20555;-81
2023/06/29 03:23:19;;;;;;;2.88;2.15;;;;;;;;;;5034310;28;20458;-81
2023/06/29 03:25:45;;;;;;;3.08;2.10;;;;;;;;;;5034121;28;20875;-81
2023/06/29 03:28:11;;;;;;;2.63;1.90;;;;;;;;;;5034152;28;20383;-81
2023/06/29 03:30:37;;;;;;;4.07;2.30;;;;;;;;;;5036225;28;20784;-81
2023/06/29 03:33:03;;;;;;;2.80;2.40;;;;;;;;;;5046025;28;20390;-81
2023/06/29 03:35:29;;;;;;;2.78;2.33;;;;;;;;;;5033897;28;20916;-82
2023/06/29 03:37:55;;;;;;;2.15;1.95;;;;;;;;;;5034034;28;20391;-81
2023/06/29 03:40:21;;;;;;;2.40;2.20;;;;;;;;;;5032652;28;20415;-81
2023/06/29 03:42:47;;;;;;;2.63;2.30;;;;;;;;;;5034079;28;20376;-82
2023/06/29 03:45:13;;;;;;;2.50;1.95;;;;;;;;;;5036131;28;20902;-81
2023/06/29 03:47:39;;;;;;;2.53;2.30;;;;;;;;;;5033631;28;20387;-81
2023/06/29 03:50:05;;;;;;;2.40;2.20;;;;;;;;;;5033739;28;20382;-82
2023/06/29 03:52:31;;;;;;;4.00;2.08;;;;;;;;;;5033596;28;20418;-81
2023/06/29 03:54:57;;;;;;;2.72;2.05;;;;;;;;;;5036387;28;20954;-82
2023/06/29 03:57:23;;;;;;;2.45;2.00;;;;;;;;;;5045355;28;20397;-82
2023/06/29 03:59:49;;;;;;;2.63;2.42;;;;;;;;;;5051621;28;20409;-81
2023/06/29 04:02:15;;;;;;;2.53;2.30;;;;;;;;;;5043524;28;20839;-81
2023/06/29 04:04:41;;;;;;;2.58;2.38;;;;;;;;;;5033371;28;20426;-81
2023/06/29 04:07:07;;;;;;;2.60;1.93;;;;;;;;;;5031926;28;20406;-81
2023/06/29 04:09:33;;;;;;;2.95;2.13;;;;;;;;;;5033273;28;20470;-82
2023/06/29 04:11:59;;;;;;;2.53;2.33;;;;;;;;;;5047155;28;20848;-81
2023/06/29 04:14:25;;;;;;;2.50;2.30;;;;;;;;;;5033269;28;20391;-82
2023/06/29 04:16:51;;;;;;;3.33;2.40;;;;;;;;;;5046451;28;20407;-81
2023/06/29 04:19:17;;;;;;;2.95;2.70;;;;;;;;;;5033123;28;20899;-82
2023/06/29 04:21:43;;;;;;;2.60;2.40;;;;;;;;;;5033115;28;20383;-81
2023/06/29 04:24:09;;;;;;;2.50;2.00;;;;;;;;;;5033012;28;20379;-81
2023/06/29 04:26:38;;;;;;;2.50;2.10;;;;;;;;;;5048646;28;20445;-81
2023/06/29 04:29:06;;;;;;;2.70;2.17;;;;;;;;;;5059770;28;20381;-82
2023/06/29 04:31:32;;;;;;;2.50;1.95;;;;;;;;;;5043053;28;20741;-82
2023/06/29 04:33:58;;;;;;;2.35;2.00;;;;;;;;;;5032827;28;20379;-82
2023/06/29 04:36:24;;;;;;;2.40;1.92;;;;;;;;;;5033068;28;20390;-81
2023/06/29 04:38:51;;;;;;;3.05;2.75;;;;;;;;;;5032643;28;20435;-82
2023/06/29 04:41:17;;;;;;;3.20;2.30;;;;;;;;;;5032691;28;20414;-81
2023/06/29 04:43:49;;;;;;;2.78;1.95;;;;;;;;;;5032723;28;20380;-82
2023/06/29 04:46:15;;;;;;;2.70;1.92;;;;;;;;;;5035850;28;20379;-82
2023/06/29 04:48:41;;;;;;;2.63;2.22;;;;;;;;;;5054241;28;20374;-82
2023/06/29 04:51:07;;;;;;;2.50;2.22;;;;;;;;;;5035205;28;20775;-82
2023/06/29 04:53:36;;;;;;;2.30;1.90;;;;;;;;;;5032981;28;20498;-82
2023/06/29 04:56:03;;;;;;;2.00;1.90;;;;;;;;;;5032346;28;20433;-82
2023/06/29 04:58:29;;;;;;;2.83;1.92;;;;;;;;;;5032579;28;20375;-82
2023/06/29 05:00:55;;;;;;;2.50;2.00;;;;;;;;;;5032124;28;20418;-82
2023/06/29 05:03:21;;;;;;;2.40;2.00;;;;;;;;;;5032390;28;20375;-82
2023/06/29 05:05:47;;;;;;;1.88;1.77;;;;;;;;;;5032385;28;20462;-82
2023/06/29 05:08:13;;;;;;;3.35;2.05;;;;;;;;;;5032291;28;20375;-82
2023/06/29 05:10:39;;;;;;;3.72;2.20;;;;;;;;;;5044829;28;20449;-82
2023/06/29 05:13:05;;;;;;;2.55;2.20;;;;;;;;;;5032511;28;20383;-82
2023/06/29 05:15:31;;;;;;;3.00;2.20;;;;;;;;;;5032132;28;20441;-82
2023/06/29 05:17:57;;;;;;;2.95;2.30;;;;;;;;;;5030969;28;20793;-82
2023/06/29 05:20:23;;;;;;;2.00;1.65;;;;;;;;;;5034032;28;20887;-82
2023/06/29 05:22:49;;;;;;;2.58;1.85;;;;;;;;;;5044448;28;20402;-82
2023/06/29 05:25:15;;;;;;;3.25;1.90;;;;;;;;;;5032010;28;20854;-82
2023/06/29 05:27:42;;;;;;;2.20;1.73;;;;;;;;;;5032155;28;20383;-82
2023/06/29 05:30:11;;;;;;;3.70;2.35;;;;;;;;;;5031740;28;20391;-82
2023/06/29 05:32:38;;;;;;;2.38;1.98;;;;;;;;;;5032022;28;20413;-82
2023/06/29 05:35:04;;;;;;;2.50;1.80;;;;;;;;;;5032045;28;20391;-82
2023/06/29 05:37:30;;;;;;;3.10;1.85;;;;;;;;;;5030148;28;20466;-82
2023/06/29 05:39:57;;;;;;;2.08;1.80;;;;;;;;;;5031594;28;20411;-82
2023/06/29 05:42:26;;;;;;;2.35;2.05;;;;;;;;;;5038314;28;20805;-84
2023/06/29 05:44:53;;;;;;;3.15;1.88;;;;;;;;;;5036562;28;20367;-82
2023/06/29 05:47:19;;;;;;;2.38;1.90;;;;;;;;;;5040962;28;20425;-82
2023/06/29 05:49:45;;;;;;;2.30;1.93;;;;;;;;;;5043153;28;20403;-82
2023/06/29 05:52:11;;;;;;;2.70;1.98;;;;;;;;;;5038273;28;20904;-82
2023/06/29 05:54:38;;;;;;;3.30;1.92;;;;;;;;;;5040854;28;20405;-82
2023/06/29 05:57:04;;;;;;;4.35;2.15;;;;;;;;;;5039750;28;20747;-82
2023/06/29 05:59:30;;;;;;;3.57;1.70;;;;;;;;;;5040110;28;20451;-82
2023/06/29 06:01:57;;;;;;;3.25;1.75;;;;;;;;;;5055574;28;20404;-82
2023/06/29 06:04:23;;;;;;;2.80;2.10;;;;;;;;;;5055448;28;20468;-82
2023/06/29 06:06:48;;;;;;;3.85;2.28;;;;;;;;;;5051428;28;20941;-82
2023/06/29 06:09:15;;;;;;;2.40;1.92;;;;;;;;;;5035175;28;20395;-83
2023/06/29 06:11:41;;;;;;;2.20;1.73;;;;;;;;;;5035216;28;20421;-82
2023/06/29 06:14:07;;;;;;;2.85;2.15;;;;;;;;;;5041437;28;20377;-83
2023/06/29 06:16:33;;;;;;;2.72;1.92;;;;;;;;;;5060280;28;20387;-83
2023/06/29 06:18:59;;;;;;;3.67;1.88;;;;;;;;;;5037910;28;20375;-83
2023/06/29 06:21:25;;;;;;;2.90;2.13;;;;;;;;;;5037420;28;20764;-82
2023/06/29 06:23:52;;;;;;;4.28;2.00;;;;;;;;;;5052957;28;20391;-83
2023/06/29 06:26:18;;;;;;;3.22;2.08;;;;;;;;;;5034955;28;20377;-82
2023/06/29 06:28:44;;;;;;;2.80;2.20;;;;;;;;;;5034402;28;20397;-82
2023/06/29 06:31:10;;;;;;;2.40;1.80;;;;;;;;;;5055023;28;20378;-83
2023/06/29 06:33:36;;;;;;;4.05;1.90;;;;;;;;;;5055128;28;20378;-83
2023/06/29 06:36:02;;;;;;;2.08;1.70;;;;;;;;;;5055931;28;20387;-83
2023/06/29 06:38:28;;;;;;;3.10;2.00;;;;;;;;;;5045782;28;20378;-83
2023/06/29 06:40:54;;;;;;;2.72;1.77;;;;;;;;;;5037336;28;20463;-83
2023/06/29 06:43:20;;;;;;;2.20;1.67;;;;;;;;;;5035239;28;20861;-83
2023/06/29 06:45:46;;;;;;;2.53;1.80;;;;;;;;;;5038002;28;20385;-83
2023/06/29 06:48:12;;;;;;;3.83;2.00;;;;;;;;;;5053477;28;20417;-83
2023/06/29 06:50:38;;;;;;;3.38;2.08;;;;;;;;;;5054683;28;20417;-83
2023/06/29 06:53:04;;;;;;;3.33;2.17;;;;;;;;;;5054503;28;20378;-83
2023/06/29 06:55:30;;;;;;;3.13;1.60;;;;;;;;;;5046124;28;20799;-84
2023/06/29 06:57:56;;;;;;;4.00;2.03;;;;;;;;;;5053943;28;20381;-84
2023/06/29 07:00:22;;;;;;;2.67;2.10;;;;;;;;;;5054125;28;20447;-83
2023/06/29 07:02:48;;;;;;;2.08;1.77;;;;;;;;;;5057077;28;20393;-85
2023/06/29 07:05:14;;;;;;;2.15;1.48;;;;;;;;;;5054615;28;20384;-85
2023/06/29 07:07:40;;;;;;;2.90;1.88;;;;;;;;;;5053617;28;20965;-85
2023/06/29 07:10:07;;;;;;;2.17;1.98;;;;;;;;;;5037430;28;20391;-85
2023/06/29 07:12:33;;;;;;;2.53;2.03;;;;;;;;;;5034549;28;20390;-85
2023/06/29 07:14:59;;;;;;;2.30;1.80;;;;;;;;;;5048451;28;20381;-85
2023/06/29 07:17:26;;;;;;;3.83;2.15;;;;;;;;;;5049239;28;20391;-85
2023/06/29 07:19:52;;;;;;;3.00;2.40;;;;;;;;;;5034184;28;20892;-83
2023/06/29 07:22:18;;;;;;;3.92;1.92;;;;;;;;;;5034126;28;20387;-85
2023/06/29 07:24:44;;;;;;;2.85;1.90;;;;;;;;;;5034375;28;20803;-85
2023/06/29 07:27:10;;;;;;;3.70;2.40;;;;;;;;;;5034104;28;20445;-85
2023/06/29 07:29:36;;;;;;;2.30;2.10;;;;;;;;;;5033817;28;20375;-85
2023/06/29 07:32:03;;;;;;;2.70;1.90;;;;;;;;;;5033925;28;20471;-84
2023/06/29 07:34:32;;;;;;;2.57;2.00;;;;;;;;;;5031684;28;20533;-84
2023/06/29 07:37:03;;;;;;;3.58;1.70;;;;;;;;;;5038483;28;20445;-85
2023/06/29 07:39:30;;;;;;;4.78;1.92;;;;;;;;;;5045566;28;20407;-85
2023/06/29 07:41:56;;;;;;;2.90;2.10;;;;;;;;;;5033791;28;20903;-85
2023/06/29 07:44:21;;;;;;;1.63;1.50;;;;;;;;;;5033746;28;20394;-88
2023/06/29 07:46:48;;;;;;;2.80;1.90;;;;;;;;;;5033528;28;20387;-85
2023/06/29 07:49:14;;;;;;;3.80;2.13;;;;;;;;;;5052015;28;20470;-85
2023/06/29 07:51:40;;;;;;;2.03;1.83;;;;;;;;;;5041228;28;20382;-85
2023/06/29 07:54:08;;;;;;;4.45;2.00;;;;;;;;;;5053132;28;20381;-84
2023/06/29 07:56:34;;;;;;;3.83;2.13;;;;;;;;;;5042113;28;20385;-84
2023/06/29 07:59:00;;;;;;;3.20;1.85;;;;;;;;;;5052252;28;20389;-85
2023/06/29 08:01:26;;;;;;;2.57;1.70;;;;;;;;;;5052745;28;20424;-85
2023/06/29 08:03:52;;;;;;;2.37;2.03;;;;;;;;;;5051753;28;20457;-84
2023/06/29 08:06:18;;;;;;;3.25;1.98;;;;;;;;;;5053747;28;20374;-85
2023/06/29 08:08:47;;;;;;;4.00;2.03;;;;;;;;;;5053765;28;20382;-84
2023/06/29 08:11:16;;;;;;;3.45;2.00;;;;;;;;;;5033295;28;20429;-84
2023/06/29 08:13:42;;;;;;;2.72;1.73;;;;;;;;;;5036301;28;20386;-84
2023/06/29 08:16:08;;;;;;;3.70;2.00;;;;;;;;;;5032059;28;20872;-84
2023/06/29 08:18:34;;;;;;;2.30;1.83;;;;;;;;;;5033157;28;20390;-84
2023/06/29 08:21:00;;;;;;;3.78;2.17;;;;;;;;;;5033393;28;20407;-83
2023/06/29 08:23:26;;;;;;;2.90;1.83;;;;;;;;;;5032890;28;20379;-84
2023/06/29 08:25:52;;;;;;;8.93;3.15;;;;;;;;;;5043091;28;20429;-83
2023/06/29 08:28:21;;;;;;;4.25;2.08;;;;;;;;;;5053206;28;20381;-83
2023/06/29 08:30:47;;;;;;;5.53;2.38;;;;;;;;;;5051751;28;20866;-83
2023/06/29 08:33:13;;;;;;;5.85;2.10;;;;;;;;;;5052631;28;20431;-84
2023/06/29 08:35:39;;;;;;;4.28;2.15;;;;;;;;;;5051705;28;20381;-83
2023/06/29 08:38:06;;;;;;;2.58;2.10;;;;;;;;;;5032681;28;20736;-83
2023/06/29 08:40:35;;;;;;;3.92;2.13;;;;;;;;;;5046682;28;20409;-83
2023/06/29 08:43:01;;;;;;;4.60;2.30;;;;;;;;;;5039163;28;20414;-83
2023/06/29 08:45:27;;;;;;;8.15;2.53;;;;;;;;;;5052683;28;20381;-83
2023/06/29 08:47:53;;;;;;;4.73;2.50;;;;;;;;;;5052781;28;20382;-83
2023/06/29 08:50:21;;;;;;;10.63;3.15;;;;;;;;;;5062759;28;20416;-84
2023/06/29 08:52:48;;;;;;;5.65;2.20;;;;;;;;;;5037593;28;20788;-83
2023/06/29 08:55:14;;;;;;;4.35;2.33;;;;;;;;;;5035888;28;20390;-87
2023/06/29 08:57:40;;;;;;;3.85;2.05;;;;;;;;;;5052613;28;20379;-85
2023/06/29 09:00:06;;;;;;;5.53;2.63;;;;;;;;;;5049548;28;20405;-84
2023/06/29 09:02:33;;;;;;;4.78;2.45;;;;;;;;;;5054966;28;20460;-85
2023/06/29 09:04:59;;;;;;;4.22;2.75;;;;;;;;;;5052186;28;20378;-84
2023/06/29 09:07:25;;;;;;;3.92;2.72;;;;;;;;;;5052319;28;20417;-84
2023/06/29 09:09:51;;;;;;;6.47;2.90;;;;;;;;;;5052045;28;20385;-84
2023/06/29 09:12:18;;;;;;;2.97;2.27;;;;;;;;;;5032704;28;20466;-85
2023/06/29 09:14:46;;;;;;;2.80;2.08;;;;;;;;;;5043919;28;20444;-83
2023/06/29 09:17:14;;;;;;;4.70;2.35;;;;;;;;;;5034241;28;20393;-83
2023/06/29 09:19:42;;;;;;;3.13;2.10;;;;;;;;;;5032229;28;20399;-83
2023/06/29 09:22:08;;;;;;;4.13;2.33;;;;;;;;;;5032027;28;20390;-83
2023/06/29 09:24:35;;;;;;;4.60;2.40;;;;;;;;;;5032198;28;20912;-83
2023/06/29 09:27:04;;;;;;;3.08;2.20;;;;;;;;;;5031982;28;20450;-83
2023/06/29 09:29:30;;;;;;;2.72;2.00;;;;;;;;;;5032404;28;20511;-83
2023/06/29 09:31:56;;;;;;;5.07;2.00;;;;;;;;;;5030901;28;20470;-83
2023/06/29 09:34:25;;;;;;;3.50;1.98;;;;;;;;;;5031997;28;20395;-83
2023/06/29 09:36:51;;;;;;;2.27;1.80;;;;;;;;;;5032021;28;20925;-83
2023/06/29 09:39:17;;;;;;;3.90;1.80;;;;;;;;;;5031833;28;20407;-83
2023/06/29 09:41:52;;;;;;;3.58;2.00;;;;;;;;;;5031951;28;20401;-84
2023/06/29 09:44:19;;;;;;;4.15;1.90;;;;;;;;;;5031821;28;20425;-84
2023/06/29 09:46:49;;;;;;;7.30;2.50;;;;;;;;;;5031903;28;20552;-85
2023/06/29 09:49:15;;;;;;;2.47;2.20;;;;;;;;;;5044052;28;20874;-82
2023/06/29 09:51:41;;;;;;;4.38;2.45;;;;;;;;;;5031688;28;20462;-84
2023/06/29 09:54:14;;;;;;;3.30;2.10;;;;;;;;;;5032225;28;20383;-83
2023/06/29 09:56:44;;;;;;;3.47;2.17;;;;;;;;;;5031754;28;20437;-83
2023/06/29 09:59:13;;;;;;;2.58;1.70;;;;;;;;;;5031830;28;20457;-83
2023/06/29 10:01:43;;;;;;;2.83;2.27;;;;;;;;;;5031488;28;20772;-83
2023/06/29 10:04:09;;;;;;;5.00;3.75;;;;;;;;;;5031738;28;20387;-83
2023/06/29 10:06:36;;;;;;;3.38;2.90;;;;;;;;;;5031840;28;20407;-84
2023/06/29 10:09:04;;;;;;;3.88;2.20;;;;;;;;;;5038249;28;20378;-83
2023/06/29 10:11:32;;;;;;;6.07;3.20;;;;;;;;;;5038536;28;20379;-82
2023/06/29 10:14:02;;;;;;;4.78;3.80;;;;;;;;;;5038835;28;20364;-83
2023/06/29 10:16:29;;;;;;;6.37;3.77;;;;;;;;;;5039742;28;20397;-84
2023/06/29 10:19:01;;;;;;;4.07;2.40;;;;;;;;;;5031485;28;20379;-83
2023/06/29 10:21:27;;;;;;;2.78;1.95;;;;;;;;;;5031771;28;20737;-83
2023/06/29 10:23:54;;;;;;;3.28;2.10;;;;;;;;;;5040513;28;20447;-84
2023/06/29 10:26:20;;;;;;;2.83;1.80;;;;;;;;;;5042564;28;20387;-83
2023/06/29 10:28:46;;;;;;;4.33;1.93;;;;;;;;;;5052157;28;20474;-84
2023/06/29 10:31:17;;;;;;;3.50;1.77;;;;;;;;;;5035464;28;20386;-84
2023/06/29 10:33:47;;;;;;;4.75;3.20;;;;;;;;;;5048381;28;20380;-83
2023/06/29 10:36:13;;;;;;;6.47;2.25;;;;;;;;;;5055152;28;20392;-83
2023/06/29 10:38:40;;;;;;;3.50;1.97;;;;;;;;;;5054881;28;20385;-83
2023/06/29 10:41:06;;;;;;;6.30;2.45;;;;;;;;;;5054918;28;20405;-85
2023/06/29 10:43:51;;;;;;;2.72;1.50;;;;;;;;;;5054964;28;20370;-84
2023/06/29 10:46:18;;;;;;;4.30;2.50;;;;;;;;;;5054856;28;20373;-84
2023/06/29 10:48:59;;;;;;;3.37;1.83;;;;;;;;;;5054843;28;20397;-84
2023/06/29 10:51:25;;;;;;;3.72;2.13;;;;;;;;;;5054665;28;20473;-83
2023/06/29 10:53:51;;;;;;;6.95;2.30;;;;;;;;;;5054786;28;20480;-84
2023/06/29 10:56:30;;;;;;;2.70;1.70;;;;;;;;;;5052293;28;20469;-83
2023/06/29 10:58:56;;;;;;;4.20;1.67;;;;;;;;;;5054554;28;20386;-84
2023/06/29 11:01:22;;;;;;;16.38;3.13;;;;;;;;;;5052911;28;20421;-84
2023/06/29 11:03:48;;;;;;;12.80;3.00;;;;;;;;;;5054540;28;20417;-83
2023/06/29 11:06:14;;;;;;;5.07;2.37;;;;;;;;;;5057000;28;20458;-83
2023/06/29 11:08:40;;;;;;;5.30;2.33;;;;;;;;;;5054311;28;20420;-83
2023/06/29 11:11:15;;;;;;;3.10;2.60;;;;;;;;;;5043082;28;20878;-84
2023/06/29 11:13:42;;;;;;;5.53;2.23;;;;;;;;;;5051202;28;20428;-83
2023/06/29 11:16:07;;;;;;;3.20;2.25;;;;;;;;;;5054104;28;20395;-83
2023/06/29 11:18:33;;;;;;;3.58;2.55;;;;;;;;;;5051160;28;20922;-83
2023/06/29 11:21:01;;;;;;;10.07;3.60;;;;;;;;;;5054170;28;20424;-84
2023/06/29 11:23:27;;;;;;;5.40;3.00;;;;;;;;;;5054133;28;20568;-83
2023/06/29 11:25:53;;;;;;;4.90;3.70;;;;;;;;;;5052764;28;20417;-84
2023/06/29 11:28:19;;;;;;;4.47;4.05;;;;;;;;;;5054472;28;20373;-84
2023/06/29 11:30:46;;;;;;;5.88;4.53;;;;;;;;;;5053776;28;20393;-84
2023/06/29 11:33:12;;;;;;;5.70;4.75;;;;;;;;;;5054072;28;20386;-84
2023/06/29 11:35:38;;;;;;;8.02;5.25;;;;;;;;;;5053810;28;20430;-83
2023/06/29 11:38:03;;;;;;;6.70;4.80;;;;;;;;;;5053230;28;20716;-84
2023/06/29 11:40:30;;;;;;;5.63;5.03;;;;;;;;;;5053013;28;20416;-85
2023/06/29 11:42:56;;;;;;;6.43;5.82;;;;;;;;;;5054071;28;20769;-84
2023/06/29 11:45:22;;;;;;;8.32;6.47;;;;;;;;;;5051722;28;20385;-84
2023/06/29 11:47:54;;;;;;;7.30;6.70;;;;;;;;;;5049242;28;20388;-84
2023/06/29 11:50:20;;;;;;;8.00;7.40;;;;;;;;;;5052910;28;20401;-84
2023/06/29 11:52:46;;;;;;;8.25;7.55;;;;;;;;;;5053424;28;20390;-84
2023/06/29 11:55:13;;;;;;;8.68;7.13;;;;;;;;;;5050294;28;20820;-85
2023/06/29 11:57:41;;;;;;;5.20;4.43;;;;;;;;;;5052301;28;20446;-85
2023/06/29 12:00:26;;;;;;;5.30;4.78;;;;;;;;;;5033308;28;20764;-84
2023/06/29 12:02:52;;;;;;;6.00;5.40;;;;;;;;;;5032188;28;20449;-84
2023/06/29 12:05:19;;;;;;;6.20;5.70;;;;;;;;;;5044973;28;20740;-85
2023/06/29 12:07:47;;;;;;;6.22;5.57;;;;;;;;;;5053168;28;20447;-85
2023/06/29 12:10:14;;;;;;;7.05;6.35;;;;;;;;;;5050970;28;20427;-85
2023/06/29 12:12:44;;;;;;;8.63;6.50;;;;;;;;;;5033376;28;20398;-84
2023/06/29 12:15:14;;;;;;;7.70;7.00;;;;;;;;;;5033943;28;20433;-85
2023/06/29 12:17:43;;;;;;;7.77;6.97;;;;;;;;;;5043664;28;20382;-84
2023/06/29 12:20:13;;;;;;;6.82;6.22;;;;;;;;;;5033436;28;20787;-84
2023/06/29 12:22:40;;;;;;;8.32;7.53;;;;;;;;;;5046066;28;20383;-84
2023/06/29 12:25:06;;;;;;;8.02;7.22;;;;;;;;;;5033179;28;20732;-83
2023/06/29 12:27:32;;;;;;;8.93;8.02;;;;;;;;;;5033335;28;20433;-83
2023/06/29 12:29:58;;;;;;;8.50;7.72;;;;;;;;;;5032955;28;20391;-84
2023/06/29 12:32:24;;;;;;;8.52;7.82;;;;;;;;;;5043371;28;20738;-83
2023/06/29 12:34:50;;;;;;;11.35;8.95;;;;;;;;;;5043807;28;20387;-84
2023/06/29 12:37:16;;;;;;;13.52;12.15;;;;;;;;;;5044194;28;20379;-85
2023/06/29 12:39:42;;;;;;;11.45;10.52;;;;;;;;;;5052758;28;20421;-85
2023/06/29 12:42:08;;;;;;;10.35;9.52;;;;;;;;;;5039223;28;20861;-86
2023/06/29 12:44:35;;;;;;;11.02;10.13;;;;;;;;;;5030796;28;20741;-86
2023/06/29 12:47:01;;;;;;;11.35;10.45;;;;;;;;;;5032942;28;20387;-86
2023/06/29 12:49:27;;;;;;;11.43;10.52;;;;;;;;;;5030955;28;20383;-86
2023/06/29 12:51:53;;;;;;;11.40;10.40;;;;;;;;;;5032506;28;20393;-87
2023/06/29 12:54:19;;;;;;;14.85;11.68;;;;;;;;;;5032752;28;20470;-86
2023/06/29 12:56:47;;;;;;;11.57;10.67;;;;;;;;;;5042442;28;20389;-85
2023/06/29 12:59:13;;;;;;;11.32;10.32;;;;;;;;;;5058953;28;20385;-87
2023/06/29 13:01:39;;;;;;;16.45;11.35;;;;;;;;;;5032328;28;20486;-88
2023/06/29 13:04:05;;;;;;;12.48;11.18;;;;;;;;;;5032508;28;20394;-88
2023/06/29 13:06:32;;;;;;;12.90;11.77;;;;;;;;;;5031445;28;20391;-88
2023/06/29 13:08:58;;;;;;;13.38;12.02;;;;;;;;;;5037118;28;20882;-88
2023/06/29 13:11:27;;;;;;;12.93;11.70;;;;;;;;;;5040270;28;20385;-89
2023/06/29 13:13:54;;;;;;;13.00;11.63;;;;;;;;;;5030944;28;20885;-90
2023/06/29 13:16:20;;;;;;;12.73;11.63;;;;;;;;;;5031113;28;20440;-88
2023/06/29 13:18:46;;;;;;;11.53;10.53;;;;;;;;;;5032137;28;20794;-87
2023/06/29 13:21:12;;;;;;;11.65;10.65;;;;;;;;;;5032252;28;20414;-88
2023/06/29 13:23:37;;;;;;;11.43;10.52;;;;;;;;;;5031994;28;20505;-88
2023/06/29 13:26:03;;;;;;;11.27;10.27;;;;;;;;;;5032213;28;20383;-88
2023/06/29 13:28:29;;;;;;;11.43;10.40;;;;;;;;;;5032167;28;20376;-87
2023/06/29 13:30:55;;;;;;;11.35;10.25;;;;;;;;;;5031991;28;20930;-87
2023/06/29 13:33:21;;;;;;;11.27;10.27;;;;;;;;;;5032145;28;20387;-88
2023/06/29 13:35:47;;;;;;;11.38;10.48;;;;;;;;;;5031892;28;20401;-87
2023/06/29 13:38:13;;;;;;;11.68;10.38;;;;;;;;;;5032041;28;20383;-88
2023/06/29 13:40:40;;;;;;;14.65;11.13;;;;;;;;;;5031541;28;20411;-89
2023/06/29 13:43:06;;;;;;;10.90;9.93;;;;;;;;;;5043668;28;20470;-87
2023/06/29 13:45:32;;;;;;;10.88;9.98;;;;;;;;;;5030646;28;20391;-87
2023/06/29 13:47:59;;;;;;;11.15;10.10;;;;;;;;;;5031919;28;20453;-87
2023/06/29 13:50:25;;;;;;;11.25;10.20;;;;;;;;;;5036324;28;20893;-87
2023/06/29 13:52:54;;;;;;;11.38;10.48;;;;;;;;;;5031850;28;20391;-87
2023/06/29 13:55:22;;;;;;;10.70;9.90;;;;;;;;;;5030515;28;20486;-87
2023/06/29 13:57:48;;;;;;;11.97;10.87;;;;;;;;;;5031819;28;20411;-87
2023/06/29 14:00:14;;;;;;;11.50;10.50;;;;;;;;;;5031550;28;20810;-89
2023/06/29 14:02:41;;;;;;;11.35;10.25;;;;;;;;;;5032812;28;20474;-90
2023/06/29 14:05:08;;;;;;;11.23;10.23;;;;;;;;;;5049467;28;20383;-88
2023/06/29 14:07:34;;;;;;;10.93;9.90;;;;;;;;;;5035926;28;20379;-88
2023/06/29 14:10:00;;;;;;;11.40;10.40;;;;;;;;;;5049341;28;20885;-88
2023/06/29 14:12:26;;;;;;;12.43;10.85;;;;;;;;;;5057602;28;20515;-88
2023/06/29 14:14:52;;;;;;;11.20;10.20;;;;;;;;;;5041915;28;20474;-88
2023/06/29 14:17:20;;;;;;;10.90;9.85;;;;;;;;;;5035417;28;20931;-89
2023/06/29 14:19:49;;;;;;;11.43;10.32;;;;;;;;;;5037989;28;20521;-89
2023/06/29 14:22:18;;;;;;;11.20;10.20;;;;;;;;;;5035228;28;20429;-88
2023/06/29 14:24:44;;;;;;;11.52;10.43;;;;;;;;;;5034408;28;20383;-87
2023/06/29 14:27:10;;;;;;;10.80;9.90;;;;;;;;;;5034010;28;20379;-88
2023/06/29 14:29:36;;;;;;;10.50;9.60;;;;;;;;;;5052646;28;20389;-88
2023/06/29 14:32:02;;;;;;;11.23;10.20;;;;;;;;;;5041188;28;20413;-87
2023/06/29 14:34:28;;;;;;;11.75;10.63;;;;;;;;;;5034303;28;20387;-89
2023/06/29 14:36:54;;;;;;;10.93;9.93;;;;;;;;;;5052106;28;20392;-88